createdAt,value
2023-10-26T00:01:13.410Z,95821.97
2023-10-26T00:03:58.631Z,95818.09
2023-10-26T00:06:44.040Z,95812.88
2023-10-26T00:09:29.570Z,95820.59
2023-10-26T00:12:15.370Z,95804.38
2023-10-26T00:15:00.827Z,95820.56
2023-10-26T00:17:46.648Z,95815.38
2023-10-26T00:20:31.946Z,95809.16
2023-10-26T00:23:16.913Z,95803.63
2023-10-26T00:26:02.088Z,95802.31
2023-10-26T00:28:47.488Z,95798.28
2023-10-26T00:31:32.404Z,95801.94
2023-10-26T00:34:17.403Z,95798.59
2023-10-26T00:37:03.080Z,95791.50
2023-10-26T00:39:48.102Z,95798.53
2023-10-26T00:42:33.572Z,95800.91
2023-10-26T00:45:19.289Z,95806.19
2023-10-26T00:48:04.716Z,95804.69
2023-10-26T00:50:50.183Z,95799.50
2023-10-26T00:53:35.421Z,95797.56
2023-10-26T00:56:20.371Z,95798.78
2023-10-26T00:59:05.785Z,95804.34
2023-10-26T01:01:50.675Z,95803.09
2023-10-26T01:04:35.696Z,95789.84
2023-10-26T01:07:21.018Z,95791.81
2023-10-26T01:10:06.068Z,95785.88
2023-10-26T01:12:51.657Z,95782.03
2023-10-26T01:15:37.270Z,95782.09
2023-10-26T01:18:22.954Z,95779.25
2023-10-26T01:21:08.440Z,95774.13
2023-10-26T01:23:53.876Z,95763.09
2023-10-26T01:26:39.188Z,95766.91
2023-10-26T01:29:24.253Z,95750.94
2023-10-26T01:32:09.845Z,95751.78
2023-10-26T01:34:55.238Z,95756.50
2023-10-26T01:37:40.728Z,95751.25
2023-10-26T01:40:26.260Z,95758.75
2023-10-26T01:43:11.354Z,95754.59
2023-10-26T01:45:56.325Z,95747.53
2023-10-26T01:48:41.828Z,95742.09
2023-10-26T01:51:27.435Z,95726.63
2023-10-26T01:54:13.021Z,95734.22
2023-10-26T01:56:58.423Z,95724.97
2023-10-26T01:59:43.701Z,95718.50
2023-10-26T02:02:29.143Z,95717.91
2023-10-26T02:05:14.658Z,95700.81
2023-10-26T02:08:00.019Z,95723.16
2023-10-26T02:10:44.958Z,95720.44
2023-10-26T02:13:30.267Z,95703.63
2023-10-26T02:16:15.376Z,95705.16
2023-10-26T02:19:00.397Z,95704.97
2023-10-26T02:21:45.672Z,95690.97
2023-10-26T02:24:30.761Z,95692.28
2023-10-26T02:27:16.246Z,95697.22
2023-10-26T02:30:01.810Z,95709.47
2023-10-26T02:32:47.225Z,95703.44
2023-10-26T02:35:32.673Z,95695.91
2023-10-26T02:38:17.733Z,95679.94
2023-10-26T02:41:02.579Z,95691.59
2023-10-26T02:43:47.645Z,95683.75
2023-10-26T02:46:32.697Z,95682.81
2023-10-26T02:49:17.777Z,95684.16
2023-10-26T02:52:03.341Z,95678.50
2023-10-26T02:54:48.704Z,95691.97
2023-10-26T02:57:34.275Z,95694.59
2023-10-26T03:00:19.716Z,95686.53
2023-10-26T03:03:05.392Z,95682.94
2023-10-26T03:05:50.809Z,95682.16
